Shell Beach, California
Current Conditions -  °F | °C
As of 7:56 PM on Saturday 24 Jan 2015 (Local Time) from KSBP Reporting Station
Clear Clear  
Wind Chill: 55°   Ceiling: Unl
Heat Index: 55°   Visibility: 10mi
Dew Point: 38°   Wind: 5mph
Humidity: 53%   Direction: 100°E
Pressure: 30.07"   Gusts: NA
Location:  35.1597°N, 120.657°W
Report Text: KSBP 250356Z 10004KT 10SM CLR 13/03 A3007 RMK AO2 SLP185 T01280033
Loading
Personal Weather Stations






























Interactive Weather Map New forecast layout! Learn more

10-Day Weather Forecast

Advertisements
Track Severe Weather on mobile